createdAt,value
2017-06-03T00:01:06.638Z,15.20
2017-06-03T00:03:40.802Z,15.50
2017-06-03T00:06:16.557Z,15.40
2017-06-03T00:08:50.684Z,15.27
2017-06-03T00:11:24.877Z,14.40
2017-06-03T00:13:59.028Z,15.17
2017-06-03T00:16:33.292Z,14.60
2017-06-03T00:19:07.460Z,14.70
2017-06-03T00:21:41.533Z,15.87
2017-06-03T00:24:15.723Z,15.47
2017-06-03T00:26:49.790Z,15.30
2017-06-03T00:29:24.000Z,16.00
2017-06-03T00:31:58.334Z,17.07
2017-06-03T00:34:32.382Z,15.90
2017-06-03T00:37:06.474Z,15.80
2017-06-03T00:39:40.622Z,17.30
2017-06-03T00:42:14.817Z,16.77
2017-06-03T00:44:48.940Z,15.73
2017-06-03T00:47:23.006Z,14.67
2017-06-03T00:49:57.243Z,16.83
2017-06-03T00:52:31.717Z,16.63
2017-06-03T00:55:05.985Z,15.80
2017-06-03T00:57:40.135Z,14.40
2017-06-03T01:00:14.499Z,15.83
2017-06-03T01:02:48.756Z,17.93
2017-06-03T01:05:23.157Z,16.70
2017-06-03T01:07:57.429Z,16.33
2017-06-03T01:10:31.707Z,16.37
2017-06-03T01:13:06.043Z,15.50
2017-06-03T01:15:40.077Z,16.40
2017-06-03T01:18:14.365Z,17.27
2017-06-03T01:20:48.633Z,17.20
2017-06-03T01:23:22.786Z,17.40
2017-06-03T01:25:57.132Z,17.17
2017-06-03T01:28:31.306Z,18.40
2017-06-03T01:31:05.442Z,16.70
2017-06-03T01:33:39.587Z,17.67
2017-06-03T01:36:13.899Z,17.63
2017-06-03T01:38:48.016Z,17.50
2017-06-03T01:41:22.289Z,16.17
2017-06-03T01:43:56.445Z,17.50
2017-06-03T01:46:30.533Z,17.90
2017-06-03T01:49:04.789Z,16.97
2017-06-03T01:51:53.813Z,16.90
2017-06-03T01:54:27.960Z,17.60
2017-06-03T01:57:02.304Z,18.30
2017-06-03T01:59:36.643Z,17.73
2017-06-03T02:02:10.864Z,17.47
2017-06-03T02:04:45.242Z,18.60
2017-06-03T02:07:19.393Z,17.27
2017-06-03T02:09:53.645Z,17.70
2017-06-03T02:12:27.690Z,17.27
2017-06-03T02:15:02.049Z,16.20
2017-06-03T02:17:36.295Z,15.93
2017-06-03T02:20:10.429Z,15.27
2017-06-03T02:22:44.620Z,16.50
2017-06-03T02:25:18.758Z,15.80
2017-06-03T02:27:52.940Z,14.83
2017-06-03T02:30:27.001Z,15.27
2017-06-03T02:33:01.108Z,15.57
2017-06-03T02:35:35.336Z,15.90
2017-06-03T02:38:09.390Z,16.33
2017-06-03T02:40:43.739Z,17.43
2017-06-03T02:43:17.954Z,16.30
2017-06-03T02:45:52.216Z,16.97
2017-06-03T02:48:26.495Z,16.90
2017-06-03T02:51:00.781Z,16.90
2017-06-03T02:53:34.864Z,16.83
2017-06-03T02:56:09.136Z,16.90
2017-06-03T02:58:43.328Z,17.10
2017-06-03T03:01:17.692Z,17.00
2017-06-03T03:03:51.751Z,16.30
2017-06-03T03:06:25.933Z,17.30
2017-06-03T03:09:00.065Z,18.10
2017-06-03T03:11:34.259Z,17.90
2017-06-03T03:14:08.582Z,18.90
2017-06-03T03:16:42.697Z,18.30
2017-06-03T03:19:16.753Z,18.53
2017-06-03T03:21:50.822Z,16.90
2017-06-03T03:24:25.049Z,16.57
2017-06-03T03:26:59.394Z,18.10
2017-06-03T03:29:33.533Z,17.73
2017-06-03T03:32:07.876Z,18.40
2017-06-03T03:34:42.126Z,18.80
2017-06-03T03:37:16.227Z,18.17
2017-06-03T03:39:50.514Z,18.13
2017-06-03T03:42:24.654Z,17.03
2017-06-03T03:44:58.729Z,19.40
2017-06-03T03:47:32.792Z,17.57
2017-06-03T03:50:07.048Z,17.07
2017-06-03T03:52:41.327Z,17.83
2017-06-03T03:55:15.597Z,18.10
2017-06-03T03:57:49.772Z,16.97
2017-06-03T04:00:24.183Z,17.03
2017-06-03T04:02:58.275Z,16.40
2017-06-03T04:05:32.601Z,16.43
2017-06-03T04:08:06.737Z,16.30
2017-06-03T04:10:40.793Z,17.10
2017-06-03T04:13:14.987Z,17.40
2017-06-03T04:15:49.092Z,17.70
2017-06-03T04:18:23.132Z,18.80
2017-06-03T04:20:57.401Z,17.30
2017-06-03T04:23:31.627Z,16.70
2017-06-03T04:26:05.884Z,17.60
2017-06-03T04:28:40.185Z,17.67
2017-06-03T04:31:14.492Z,17.83
2017-06-03T04:33:48.662Z,15.10
2017-06-03T04:36:23.061Z,16.53
2017-06-03T04:38:57.876Z,17.87
2017-06-03T04:41:32.008Z,16.03
2017-06-03T04:44:06.112Z,17.23
2017-06-03T04:46:40.317Z,16.53
2017-06-03T04:49:14.619Z,16.37
2017-06-03T04:51:48.964Z,16.07
2017-06-03T04:54:23.069Z,15.50
2017-06-03T04:56:57.107Z,13.23
2017-06-03T04:59:31.349Z,14.13
2017-06-03T05:02:05.465Z,14.47
2017-06-03T05:04:39.557Z,14.83
2017-06-03T05:07:13.707Z,14.10
2017-06-03T05:09:47.754Z,13.30
2017-06-03T05:12:21.955Z,13.20
2017-06-03T05:14:56.191Z,13.13
2017-06-03T05:17:30.341Z,12.30
2017-06-03T05:20:04.500Z,13.33
2017-06-03T05:22:38.783Z,13.83
2017-06-03T05:25:12.974Z,13.00
2017-06-03T05:27:47.278Z,12.50
2017-06-03T05:30:21.693Z,12.67
2017-06-03T05:32:55.873Z,13.07
2017-06-03T05:35:30.036Z,12.43
2017-06-03T05:38:04.467Z,12.57
2017-06-03T05:40:38.623Z,11.60
2017-06-03T05:43:12.836Z,12.27
2017-06-03T05:45:47.356Z,12.20
2017-06-03T05:48:21.609Z,12.33
2017-06-03T05:50:55.880Z,12.60
2017-06-03T05:53:30.020Z,11.77
2017-06-03T05:56:04.121Z,11.57
2017-06-03T05:58:38.293Z,11.97
2017-06-03T06:01:12.518Z,12.00
2017-06-03T06:03:46.738Z,11.27
2017-06-03T06:06:20.933Z,11.60
2017-06-03T06:08:55.155Z,11.67
2017-06-03T06:11:29.374Z,11.37
2017-06-03T06:14:03.657Z,10.43
2017-06-03T06:16:37.767Z,12.80
2017-06-03T06:19:11.803Z,12.90
2017-06-03T06:21:45.888Z,11.47
2017-06-03T06:24:20.146Z,11.13
2017-06-03T06:26:54.148Z,11.40
2017-06-03T06:29:28.220Z,11.80
2017-06-03T06:32:02.257Z,10.17
2017-06-03T06:34:36.327Z,10.93
2017-06-03T06:37:10.559Z,10.90
2017-06-03T06:39:44.812Z,10.83
2017-06-03T06:42:19.251Z,11.00
2017-06-03T06:44:53.302Z,11.37
2017-06-03T06:47:27.501Z,10.47
2017-06-03T06:50:01.905Z,10.40
2017-06-03T06:52:36.014Z,10.10
2017-06-03T06:55:10.182Z,10.10
2017-06-03T06:57:44.343Z,9.80
2017-06-03T07:00:18.603Z,10.60
2017-06-03T07:02:52.666Z,10.90
2017-06-03T07:05:26.728Z,10.10
2017-06-03T07:08:00.911Z,10.63
2017-06-03T07:10:35.114Z,10.20
2017-06-03T07:13:09.202Z,9.67
2017-06-03T07:15:43.296Z,11.40
2017-06-03T07:18:17.609Z,10.23
2017-06-03T07:20:51.661Z,10.40
2017-06-03T07:23:25.812Z,9.57
2017-06-03T07:25:59.849Z,10.00
2017-06-03T07:28:34.002Z,10.60
2017-06-03T07:31:08.090Z,9.80
2017-06-03T07:33:42.382Z,10.03
2017-06-03T07:36:16.695Z,10.70
2017-06-03T07:38:52.365Z,11.60
2017-06-03T07:41:26.599Z,10.27
2017-06-03T07:44:00.739Z,10.17
2017-06-03T07:46:34.951Z,9.77
2017-06-03T07:49:09.204Z,10.27
2017-06-03T07:51:43.373Z,9.90
2017-06-03T07:54:17.570Z,9.83
2017-06-03T07:56:51.716Z,9.47
2017-06-03T07:59:25.786Z,9.83
2017-06-03T08:01:59.937Z,9.60
2017-06-03T08:04:34.015Z,9.67
2017-06-03T08:07:08.364Z,11.83
2017-06-03T08:09:42.529Z,9.67
2017-06-03T08:12:16.807Z,8.63
2017-06-03T08:14:50.962Z,9.87
2017-06-03T08:17:25.113Z,9.70
2017-06-03T08:19:59.217Z,8.97
2017-06-03T08:22:33.448Z,10.17
2017-06-03T08:25:07.681Z,9.07
2017-06-03T08:27:41.817Z,9.30
2017-06-03T08:30:15.849Z,10.33
2017-06-03T08:32:50.024Z,9.87
2017-06-03T08:35:24.181Z,10.13
2017-06-03T08:37:58.354Z,9.87
2017-06-03T08:40:32.561Z,10.00
2017-06-03T08:43:06.634Z,9.80
2017-06-03T08:45:40.805Z,10.00
2017-06-03T08:48:14.942Z,9.73
2017-06-03T08:50:48.952Z,11.43
2017-06-03T08:53:23.089Z,9.83
2017-06-03T08:55:57.136Z,10.30
2017-06-03T08:58:31.338Z,11.17
2017-06-03T09:01:05.492Z,10.30
2017-06-03T09:03:39.672Z,9.53
2017-06-03T09:06:13.909Z,11.10
2017-06-03T09:08:48.182Z,10.03
2017-06-03T09:11:22.524Z,9.40
2017-06-03T09:13:56.595Z,10.40
2017-06-03T09:16:30.740Z,9.87
2017-06-03T09:19:04.980Z,10.57
2017-06-03T09:21:39.121Z,9.37
2017-06-03T09:24:13.457Z,10.60
2017-06-03T09:26:47.516Z,9.43
2017-06-03T09:29:21.625Z,10.23
2017-06-03T09:31:55.763Z,9.90
2017-06-03T09:34:30.002Z,9.90
2017-06-03T09:37:03.997Z,9.60
2017-06-03T09:39:38.139Z,10.87
2017-06-03T09:42:12.274Z,10.27
2017-06-03T09:44:46.434Z,9.70
2017-06-03T09:47:20.605Z,9.97
2017-06-03T09:49:54.617Z,12.80
2017-06-03T09:52:28.756Z,10.20
2017-06-03T09:55:02.892Z,11.90
2017-06-03T09:57:37.037Z,10.13
2017-06-03T10:00:11.319Z,10.40
2017-06-03T10:02:45.577Z,11.40
2017-06-03T10:05:19.881Z,10.10
2017-06-03T10:07:54.111Z,10.20
2017-06-03T10:10:28.300Z,10.57
2017-06-03T10:13:02.551Z,10.20
2017-06-03T10:15:36.718Z,10.63
2017-06-03T10:18:10.920Z,9.47
2017-06-03T10:20:45.186Z,12.63
2017-06-03T10:23:19.458Z,12.50
2017-06-03T10:25:53.564Z,9.60
2017-06-03T10:28:27.751Z,10.13
2017-06-03T10:31:01.881Z,9.77
2017-06-03T10:33:36.076Z,9.17
2017-06-03T10:36:10.157Z,11.33
2017-06-03T10:38:44.190Z,9.87
2017-06-03T10:41:18.425Z,9.70
2017-06-03T10:43:52.578Z,10.10
2017-06-03T10:46:26.745Z,9.60
2017-06-03T10:49:00.889Z,9.60
2017-06-03T10:51:35.000Z,9.50
2017-06-03T10:54:09.042Z,9.70
2017-06-03T10:56:43.189Z,10.07
2017-06-03T10:59:17.303Z,10.03
2017-06-03T11:01:51.488Z,9.37
2017-06-03T11:04:25.744Z,9.20
2017-06-03T11:06:59.874Z,9.30
2017-06-03T11:09:34.184Z,10.50
2017-06-03T11:12:08.462Z,9.63
2017-06-03T11:14:42.740Z,9.90
2017-06-03T11:17:16.955Z,10.00
2017-06-03T11:19:51.122Z,10.23
2017-06-03T11:22:25.465Z,9.33
2017-06-03T11:24:59.491Z,9.53
2017-06-03T11:27:33.824Z,10.90
2017-06-03T11:30:08.170Z,9.93
2017-06-03T11:32:42.429Z,10.43
2017-06-03T11:35:16.600Z,10.60
2017-06-03T11:37:51.012Z,10.50
2017-06-03T11:40:25.236Z,9.70
2017-06-03T11:42:59.473Z,10.77
2017-06-03T11:45:33.736Z,10.63
2017-06-03T11:48:07.871Z,10.47
2017-06-03T11:50:42.101Z,10.30
2017-06-03T11:53:16.250Z,11.17
2017-06-03T11:55:50.496Z,10.73
2017-06-03T11:58:24.727Z,11.00
2017-06-03T12:00:58.757Z,10.70
2017-06-03T12:03:32.976Z,11.40
2017-06-03T12:06:07.184Z,11.60
2017-06-03T12:08:41.437Z,11.20
2017-06-03T12:11:15.642Z,11.10
2017-06-03T12:13:49.794Z,11.03
2017-06-03T12:16:24.097Z,10.20
2017-06-03T12:18:58.395Z,11.07
2017-06-03T12:21:32.692Z,10.60
2017-06-03T12:24:06.765Z,10.90
2017-06-03T12:26:40.967Z,10.77
2017-06-03T12:29:15.239Z,9.73
2017-06-03T12:31:49.479Z,10.80
2017-06-03T12:34:23.597Z,10.17
2017-06-03T12:36:57.767Z,10.00
2017-06-03T12:39:31.920Z,10.23
2017-06-03T12:42:06.139Z,9.47
2017-06-03T12:44:40.292Z,9.80
2017-06-03T12:47:14.534Z,9.50
2017-06-03T12:49:48.741Z,9.40
2017-06-03T12:52:22.943Z,9.20
2017-06-03T12:54:57.220Z,9.03
2017-06-03T12:57:31.381Z,11.70
2017-06-03T13:00:05.621Z,11.37
2017-06-03T13:02:40.104Z,9.53
2017-06-03T13:05:14.434Z,9.23
2017-06-03T13:07:48.804Z,9.87
2017-06-03T13:10:23.137Z,9.77
2017-06-03T13:12:57.380Z,9.70
2017-06-03T13:15:31.807Z,9.00
2017-06-03T13:18:06.021Z,9.60
2017-06-03T13:20:40.126Z,8.97
2017-06-03T13:23:14.385Z,9.50
2017-06-03T13:25:48.550Z,8.40
2017-06-03T13:28:22.834Z,8.50
2017-06-03T13:30:57.092Z,8.33
2017-06-03T13:33:31.346Z,8.37
2017-06-03T13:36:05.450Z,8.50
2017-06-03T13:41:54.681Z,8.20
2017-06-03T13:44:28.803Z,7.80
2017-06-03T13:47:02.941Z,9.60
2017-06-03T13:49:37.020Z,9.50
2017-06-03T13:52:11.281Z,10.10
2017-06-03T13:54:45.339Z,9.17
2017-06-03T13:57:19.536Z,9.63
2017-06-03T13:59:53.589Z,8.50
2017-06-03T14:03:04.711Z,9.07
2017-06-03T14:05:38.747Z,8.80
2017-06-03T14:08:12.907Z,8.97
2017-06-03T14:14:01.525Z,8.40
2017-06-03T14:16:35.599Z,8.87
2017-06-03T14:19:09.980Z,7.17
2017-06-03T14:21:44.071Z,7.37
2017-06-03T14:24:18.187Z,7.93
2017-06-03T14:26:52.219Z,7.73
2017-06-03T14:29:26.356Z,7.27
2017-06-03T14:32:00.383Z,7.80
2017-06-03T14:34:34.487Z,7.77
2017-06-03T14:37:08.526Z,8.33
2017-06-03T14:42:57.931Z,8.63
2017-06-03T14:45:32.119Z,8.03
2017-06-03T14:48:06.200Z,8.90
2017-06-03T14:50:40.211Z,8.60
2017-06-03T14:53:14.485Z,8.17
2017-06-03T14:55:48.520Z,8.30
2017-06-03T15:01:37.491Z,8.20
2017-06-03T15:04:11.508Z,8.73
2017-06-03T15:06:45.578Z,8.20
2017-06-03T15:09:19.777Z,8.77
2017-06-03T15:11:53.973Z,8.50
2017-06-03T15:14:28.119Z,8.57
2017-06-03T15:17:02.188Z,8.90
2017-06-03T15:19:36.353Z,8.97
2017-06-03T15:22:10.427Z,9.37
2017-06-03T15:24:44.460Z,9.33
2017-06-03T15:27:18.589Z,9.93
2017-06-03T15:29:52.697Z,9.37
2017-06-03T15:32:26.844Z,10.57
2017-06-03T15:35:00.964Z,10.47
2017-06-03T15:37:35.181Z,10.50
2017-06-03T15:40:09.191Z,10.50
2017-06-03T15:42:43.390Z,10.80
2017-06-03T15:45:17.652Z,10.87
2017-06-03T15:47:51.821Z,10.97
2017-06-03T15:50:25.903Z,10.83
2017-06-03T15:52:59.970Z,10.00
2017-06-03T15:55:34.009Z,10.70
2017-06-03T15:58:08.153Z,10.70
2017-06-03T16:00:42.867Z,10.97
2017-06-03T16:03:16.856Z,11.27
2017-06-03T16:05:51.007Z,10.40
2017-06-03T16:08:25.048Z,10.53
2017-06-03T16:10:59.113Z,10.73
2017-06-03T16:13:33.316Z,11.20
2017-06-03T16:19:22.339Z,10.17
2017-06-03T16:21:56.453Z,10.50
2017-06-03T16:24:31.215Z,10.73
2017-06-03T16:27:05.280Z,10.57
2017-06-03T16:29:39.442Z,9.50
2017-06-03T16:32:13.671Z,10.57
2017-06-03T16:34:47.859Z,10.23
2017-06-03T16:37:22.004Z,14.40
2017-06-03T16:39:56.141Z,10.50
2017-06-03T16:45:44.513Z,8.60
2017-06-03T16:48:18.732Z,8.90
2017-06-03T16:50:52.898Z,9.50
2017-06-03T16:53:27.113Z,9.07
2017-06-03T16:56:01.144Z,9.30
2017-06-03T16:58:35.275Z,9.50
2017-06-03T17:04:24.014Z,9.50
2017-06-03T17:06:58.030Z,10.00
2017-06-03T17:09:32.250Z,9.90
2017-06-03T17:12:06.347Z,9.43
2017-06-03T17:14:40.435Z,9.23
2017-06-03T17:17:14.652Z,10.03
2017-06-03T17:19:48.663Z,10.53
2017-06-03T17:22:23.912Z,10.60
2017-06-03T17:24:57.932Z,9.63
2017-06-03T17:27:32.141Z,10.10
2017-06-03T17:30:06.277Z,10.80
2017-06-03T17:32:40.417Z,10.57
2017-06-03T17:35:14.484Z,10.83
2017-06-03T17:37:48.478Z,10.70
2017-06-03T17:40:22.571Z,10.57
2017-06-03T17:42:56.709Z,10.20
2017-06-03T17:45:30.861Z,10.33
2017-06-03T17:48:04.893Z,10.90
2017-06-03T17:50:39.145Z,11.27
2017-06-03T17:53:13.326Z,10.83
2017-06-03T17:55:47.352Z,10.43
2017-06-03T17:58:21.572Z,10.57
2017-06-03T18:00:56.078Z,10.63
2017-06-03T18:03:30.085Z,11.47
2017-06-03T18:06:04.255Z,11.27
2017-06-03T18:08:38.448Z,11.70
2017-06-03T18:11:12.671Z,11.50
2017-06-03T18:13:46.925Z,11.23
2017-06-03T18:16:21.068Z,11.77
2017-06-03T18:18:55.260Z,12.07
2017-06-03T18:24:43.832Z,11.93
2017-06-03T18:27:24.015Z,11.60
2017-06-03T18:29:58.057Z,11.40
2017-06-03T18:32:32.207Z,11.13
2017-06-03T18:35:06.429Z,12.30
2017-06-03T18:37:40.597Z,12.43
2017-06-03T18:40:14.756Z,12.50
2017-06-03T18:42:48.812Z,12.80
2017-06-03T18:45:22.999Z,12.30
2017-06-03T18:47:57.027Z,12.70
2017-06-03T18:50:31.044Z,13.43
2017-06-03T18:53:05.123Z,12.90
2017-06-03T18:58:54.474Z,13.00
2017-06-03T19:04:43.213Z,13.40
2017-06-03T19:07:17.904Z,12.27
2017-06-03T19:09:51.987Z,13.10
2017-06-03T19:12:26.249Z,12.70
2017-06-03T19:15:00.391Z,12.90
2017-06-03T19:17:34.572Z,12.50
2017-06-03T19:20:08.748Z,13.30
2017-06-03T19:22:42.935Z,14.60
2017-06-03T19:25:17.040Z,14.33
2017-06-03T19:27:51.060Z,13.53
2017-06-03T19:30:25.317Z,13.57
2017-06-03T19:32:59.338Z,13.10
2017-06-03T19:35:33.666Z,14.07
2017-06-03T19:38:07.714Z,14.13
2017-06-03T19:40:41.925Z,13.90
2017-06-03T19:43:16.101Z,14.70
2017-06-03T19:45:50.462Z,14.30
2017-06-03T19:48:24.579Z,14.20
2017-06-03T19:50:58.748Z,13.90
2017-06-03T19:53:32.920Z,15.10
2017-06-03T19:56:07.016Z,14.90
2017-06-03T19:58:41.237Z,14.13
2017-06-03T20:01:15.440Z,14.90
2017-06-03T20:03:49.472Z,14.00
2017-06-03T20:06:23.549Z,14.00
2017-06-03T20:08:57.606Z,13.73
2017-06-03T20:11:31.769Z,14.77
2017-06-03T20:14:06.463Z,13.77
2017-06-03T20:16:40.628Z,13.40
2017-06-03T20:19:14.710Z,14.17
2017-06-03T20:21:48.764Z,14.87
2017-06-03T20:24:22.865Z,14.70
2017-06-03T20:26:57.091Z,13.60
2017-06-03T20:29:31.365Z,14.80
2017-06-03T20:32:05.432Z,15.93
2017-06-03T20:34:39.587Z,13.87
2017-06-03T20:37:13.567Z,14.97
2017-06-03T20:39:47.724Z,14.57
2017-06-03T20:42:21.922Z,15.30
2017-06-03T20:48:10.560Z,15.27
2017-06-03T20:50:44.615Z,14.50
2017-06-03T20:53:18.807Z,15.70
2017-06-03T20:55:52.891Z,14.70
2017-06-03T20:58:26.972Z,14.60
2017-06-03T21:04:16.392Z,14.43
2017-06-03T21:06:50.494Z,15.43
2017-06-03T21:09:24.655Z,14.93
2017-06-03T21:11:58.792Z,16.07
2017-06-03T21:14:33.702Z,14.27
2017-06-03T21:17:07.859Z,15.70
2017-06-03T21:19:41.877Z,14.43
2017-06-03T21:22:16.131Z,16.90
2017-06-03T21:24:50.184Z,15.67
2017-06-03T21:27:24.306Z,15.30
2017-06-03T21:29:58.328Z,15.17
2017-06-03T21:32:32.560Z,15.20
2017-06-03T21:35:06.762Z,14.83
2017-06-03T21:37:41.031Z,14.07
2017-06-03T21:40:15.216Z,15.10
2017-06-03T21:42:49.275Z,15.00
2017-06-03T21:45:23.487Z,14.63
2017-06-03T21:47:57.540Z,15.20
2017-06-03T21:50:31.556Z,15.30
2017-06-03T21:53:05.590Z,14.80
2017-06-03T21:55:39.822Z,14.87
2017-06-03T21:58:14.048Z,15.03
2017-06-03T22:00:48.212Z,14.00
2017-06-03T22:03:22.453Z,14.93
2017-06-03T22:05:56.630Z,14.70
2017-06-03T22:08:30.764Z,16.67
2017-06-03T22:11:04.813Z,14.87
2017-06-03T22:13:38.981Z,15.60
2017-06-03T22:16:13.116Z,15.67
2017-06-03T22:18:47.321Z,14.40
2017-06-03T22:24:36.068Z,14.97
2017-06-03T22:27:10.126Z,15.03
2017-06-03T22:29:44.308Z,14.73
2017-06-03T22:32:18.563Z,17.43
2017-06-03T22:34:52.807Z,14.27
2017-06-03T22:37:26.960Z,13.80
2017-06-03T22:40:01.021Z,14.23
2017-06-03T22:42:35.168Z,14.73
2017-06-03T22:45:09.166Z,14.77
2017-06-03T22:47:43.308Z,13.67
2017-06-03T22:53:31.757Z,15.50
2017-06-03T22:56:05.816Z,14.50
2017-06-03T22:58:39.912Z,14.40
2017-06-03T23:04:29.495Z,14.53
2017-06-03T23:07:03.504Z,14.87
2017-06-03T23:09:37.711Z,13.03
2017-06-03T23:12:11.791Z,13.73
2017-06-03T23:14:45.933Z,12.93
2017-06-03T23:17:20.123Z,13.30
2017-06-03T23:19:54.321Z,14.00
2017-06-03T23:22:28.523Z,14.57
2017-06-03T23:25:02.593Z,12.67
2017-06-03T23:27:36.761Z,12.00
2017-06-03T23:30:10.810Z,12.77
2017-06-03T23:32:44.980Z,12.40
2017-06-03T23:35:19.065Z,13.47
2017-06-03T23:37:53.166Z,13.10
2017-06-03T23:40:27.352Z,13.00
2017-06-03T23:43:01.443Z,12.53
2017-06-03T23:45:35.611Z,13.10
2017-06-03T23:48:09.823Z,14.23
2017-06-03T23:50:44.006Z,12.07
2017-06-03T23:53:18.197Z,12.60
2017-06-03T23:55:52.217Z,12.90
2017-06-03T23:58:26.323Z,13.00
